Time;durP1;ratioP1;P1;durP2;ratioP2;P2;SDS_P1;SDS_P2;PMS_P1;PMS_P2;Temp;Humidity;BMP_temperature;BMP_pressure;BME280_temperature;BME280_humidity;BME280_pressure;Samples;Min_cycle;Max_cycle;Signal;HPM_P1;HPM_P2
2022/04/17 00:01:13;;;;;;;77.68;51.65;;;;;;;6.14;85.79;103261.00;4940828;28;20070;-79
2022/04/17 00:03:42;;;;;;;77.88;50.90;;;;;;;6.10;85.71;103269.50;4931764;29;20505;-79
2022/04/17 00:06:14;;;;;;;76.03;50.92;;;;;;;6.05;86.40;103263.09;4931663;29;20420;-79
2022/04/17 00:08:42;;;;;;;94.05;51.70;;;;;;;6.01;86.07;103267.25;4966464;28;20128;-79
2022/04/17 00:11:11;;;;;;;78.28;51.03;;;;;;;5.98;86.32;103259.19;4935906;28;20059;-79
2022/04/17 00:13:39;;;;;;;71.72;46.85;;;;;;;5.94;86.03;103251.03;4952190;29;20055;-79
2022/04/17 00:16:08;;;;;;;76.93;48.85;;;;;;;5.93;86.17;103254.47;4947222;29;20039;-79
2022/04/17 00:18:37;;;;;;;77.03;48.55;;;;;;;5.90;86.19;103262.13;4941941;28;20051;-79
2022/04/17 00:21:08;;;;;;;70.10;46.65;;;;;;;5.85;86.31;103265.34;4953777;28;20055;-79
2022/04/17 00:23:36;;;;;;;74.78;46.83;;;;;;;5.80;85.72;103260.66;4951404;29;20047;-79
2022/04/17 00:26:05;;;;;;;76.30;48.67;;;;;;;5.78;85.83;103255.31;4925253;28;20385;-79
2022/04/17 00:28:33;;;;;;;71.40;48.05;;;;;;;5.75;86.17;103249.91;4946723;28;20047;-79
2022/04/17 00:31:01;;;;;;;66.18;45.47;;;;;;;5.75;85.41;103243.78;4951891;28;20053;-79
2022/04/17 00:33:31;;;;;;;73.20;45.65;;;;;;;5.72;85.54;103254.06;4936954;28;20508;-79
2022/04/17 00:35:59;;;;;;;67.38;45.25;;;;;;;5.68;86.40;103252.06;4953989;28;20059;-79
2022/04/17 00:38:28;;;;;;;75.60;46.13;;;;;;;5.62;86.32;103247.34;4951520;28;20540;-79
2022/04/17 00:40:56;;;;;;;75.53;46.95;;;;;;;5.60;86.88;103254.22;4952896;28;20062;-79
2022/04/17 00:43:30;;;;;;;76.40;46.15;;;;;;;5.55;87.50;103239.94;4901103;29;20047;-79
2022/04/17 00:46:00;;;;;;;66.88;41.80;;;;;;;5.49;86.91;103232.59;4932314;29;20055;-79
2022/04/17 00:48:28;;;;;;;62.50;40.80;;;;;;;5.46;86.63;103241.19;4935088;28;20052;-79
2022/04/17 00:50:59;;;;;;;64.43;40.92;;;;;;;5.44;86.95;103242.78;4953547;28;20054;-78
2022/04/17 00:53:28;;;;;;;62.28;36.17;;;;;;;5.41;86.36;103242.59;4951329;28;20252;-78
2022/04/17 00:55:58;;;;;;;56.20;33.55;;;;;;;5.45;85.90;103241.97;4937416;28;20047;-78
2022/04/17 00:58:29;;;;;;;41.00;26.38;;;;;;;5.49;85.75;103242.16;4938850;28;20052;-78
2022/04/17 01:01:00;;;;;;;54.25;34.85;;;;;;;5.50;85.87;103239.66;4950067;28;20059;-75
2022/04/17 01:03:29;;;;;;;48.08;31.95;;;;;;;5.53;85.36;103236.31;4930932;28;20887;-75
2022/04/17 01:05:58;;;;;;;51.15;31.67;;;;;;;5.54;85.36;103233.81;4946708;29;20039;-75
2022/04/17 01:08:27;;;;;;;43.55;29.83;;;;;;;5.55;85.17;103246.06;4948013;28;20266;-75
2022/04/17 01:10:57;;;;;;;47.45;29.13;;;;;;;5.56;84.63;103241.75;4950612;28;20063;-75
2022/04/17 01:13:26;;;;;;;57.72;31.90;;;;;;;5.58;85.66;103245.38;4946250;28;20058;-75
2022/04/17 01:15:58;;;;;;;40.47;26.33;;;;;;;5.56;84.76;103236.53;4922785;28;20058;-75
2022/04/17 01:18:27;;;;;;;45.25;29.83;;;;;;;5.57;84.85;103239.22;4947498;28;20475;-75
2022/04/17 01:20:55;;;;;;;50.35;31.50;;;;;;;5.55;84.65;103239.94;4950080;28;20400;-75
2022/04/17 01:28:58;;;;;;;46.97;30.20;;;;;;;5.43;86.11;103224.38;4946499;28;20054;-75
2022/04/17 01:31:29;;;;;;;44.83;30.15;;;;;;;5.40;86.08;103224.19;4954768;28;20051;-75
2022/04/17 01:33:58;;;;;;;51.05;30.40;;;;;;;5.35;86.67;103221.28;4945708;28;20048;-75
2022/04/17 01:36:26;;;;;;;36.72;24.05;;;;;;;5.32;86.24;103217.59;4950442;28;20044;-75
2022/04/17 01:38:54;;;;;;;43.20;27.23;;;;;;;5.31;86.28;103216.66;4902684;28;20087;-75
2022/04/17 01:41:23;;;;;;;35.85;25.75;;;;;;;5.28;87.40;103220.00;4944160;29;20047;-75
2022/04/17 01:43:51;;;;;;;38.92;24.77;;;;;;;5.25;87.01;103225.06;4950716;28;20027;-75
2022/04/17 01:46:19;;;;;;;35.00;21.50;;;;;;;5.24;86.83;103222.34;4917254;28;20330;-75
2022/04/17 01:48:48;;;;;;;33.50;24.02;;;;;;;5.23;87.24;103223.13;4921512;29;20043;-75
2022/04/17 01:51:16;;;;;;;36.95;25.15;;;;;;;5.22;86.88;103224.84;4936421;28;20047;-75
2022/04/17 01:53:44;;;;;;;37.88;24.42;;;;;;;5.19;87.21;103215.91;4949497;28;20047;-74
2022/04/17 01:56:13;;;;;;;36.40;23.05;;;;;;;5.14;87.59;103213.00;4926472;29;20516;-75
2022/04/17 01:58:41;;;;;;;35.33;22.58;;;;;;;5.09;87.59;103209.19;4949319;28;20056;-75
2022/04/17 02:01:10;;;;;;;35.03;20.85;;;;;;;5.05;87.59;103202.88;4931331;28;20058;-76
2022/04/17 02:03:38;;;;;;;32.88;21.98;;;;;;;4.99;88.49;103198.94;4964633;28;20059;-75
2022/04/17 02:06:07;;;;;;;32.50;21.38;;;;;;;4.97;89.00;103205.78;4954002;28;20046;-76
2022/04/17 02:08:35;;;;;;;31.33;20.35;;;;;;;4.93;88.45;103204.69;4921170;29;20071;-75
2022/04/17 02:11:03;;;;;;;35.17;19.63;;;;;;;4.94;88.19;103206.50;4959424;28;20039;-76
2022/04/17 02:13:34;;;;;;;31.23;21.40;;;;;;;4.93;88.70;103202.06;4900764;29;20051;-75
2022/04/17 02:16:03;;;;;;;31.10;21.92;;;;;;;4.92;88.84;103202.91;4906287;28;20047;-75
2022/04/17 02:18:31;;;;;;;31.55;19.33;;;;;;;4.91;89.09;103194.94;4948791;28;20070;-74
2022/04/17 02:21:01;;;;;;;30.85;20.15;;;;;;;4.88;88.86;103190.44;4935702;28;20048;-74
2022/04/17 02:23:29;;;;;;;35.50;19.90;;;;;;;4.85;88.93;103187.63;4959732;28;20043;-74
2022/04/17 02:25:57;;;;;;;29.65;21.25;;;;;;;4.83;89.76;103191.84;4948924;28;20039;-74
2022/04/17 02:28:27;;;;;;;30.02;18.90;;;;;;;4.83;89.71;103186.63;4946831;28;20159;-76
2022/04/17 02:30:55;;;;;;;30.40;18.92;;;;;;;4.83;90.29;103197.97;4930420;28;20039;-74
2022/04/17 02:33:23;;;;;;;25.98;17.55;;;;;;;4.84;89.58;103189.34;4949200;28;20040;-74
2022/04/17 02:35:53;;;;;;;27.38;17.77;;;;;;;4.81;89.49;103193.47;4934553;28;20516;-74
2022/04/17 02:38:21;;;;;;;27.58;19.27;;;;;;;4.79;90.79;103190.75;4945629;28;20329;-74
2022/04/17 02:40:51;;;;;;;23.52;17.38;;;;;;;4.76;90.40;103190.53;4948105;28;20388;-74
2022/04/17 02:43:19;;;;;;;26.08;18.13;;;;;;;4.76;90.59;103197.47;4956494;28;20562;-74
2022/04/17 02:45:50;;;;;;;27.20;17.58;;;;;;;4.74;91.08;103197.38;4934342;29;20048;-74
2022/04/17 02:48:19;;;;;;;24.55;17.45;;;;;;;4.70;91.13;103184.94;4914931;28;20608;-74
2022/04/17 02:50:48;;;;;;;26.80;18.13;;;;;;;4.71;91.38;103189.34;4939619;28;20069;-74
2022/04/17 02:53:17;;;;;;;25.83;17.33;;;;;;;4.70;91.60;103190.16;4937482;28;20067;-74
2022/04/17 02:55:45;;;;;;;23.45;16.95;;;;;;;4.68;92.11;103203.09;4947897;28;20043;-74
2022/04/17 02:58:14;;;;;;;25.25;17.08;;;;;;;4.67;92.05;103187.34;4944013;28;20546;-75
2022/04/17 03:06:16;;;;;;;28.85;17.83;;;;;;;4.60;92.53;103183.44;4940555;28;20362;-74
2022/04/17 03:08:44;;;;;;;29.58;17.80;;;;;;;4.57;92.76;103185.81;4921004;29;20039;-74
2022/04/17 03:11:13;;;;;;;24.73;18.20;;;;;;;4.56;93.58;103193.59;4934664;28;20048;-74
2022/04/17 03:13:41;;;;;;;29.73;19.52;;;;;;;4.54;93.27;103193.47;4948082;28;20039;-74
2022/04/17 03:16:11;;;;;;;31.63;19.35;;;;;;;4.52;93.64;103199.38;4912296;29;20381;-74
2022/04/17 03:18:39;;;;;;;32.13;18.33;;;;;;;4.50;93.97;103199.31;4933636;28;20047;-74
2022/04/17 03:21:08;;;;;;;34.88;19.80;;;;;;;4.51;94.14;103201.09;4909597;29;20773;-74
2022/04/17 03:23:36;;;;;;;29.17;17.95;;;;;;;4.48;94.26;103198.31;4954336;28;20167;-74
2022/04/17 03:26:04;;;;;;;30.15;18.75;;;;;;;4.46;94.76;103199.88;4938265;28;20051;-74
2022/04/17 03:28:33;;;;;;;27.38;19.05;;;;;;;4.44;94.29;103196.28;4930601;29;20285;-74
2022/04/17 03:31:01;;;;;;;26.67;17.80;;;;;;;4.44;94.65;103198.88;4961808;28;20047;-74
2022/04/17 03:33:29;;;;;;;30.15;19.95;;;;;;;4.43;94.48;103195.38;4947463;28;20269;-74
2022/04/17 03:35:58;;;;;;;28.45;18.60;;;;;;;4.43;94.79;103195.38;4933079;28;20035;-74
2022/04/17 03:38:26;;;;;;;30.23;19.50;;;;;;;4.42;94.46;103198.81;4911036;28;20272;-74
2022/04/17 03:40:55;;;;;;;29.58;18.77;;;;;;;4.42;94.87;103193.59;4948017;28;20054;-74
2022/04/17 03:43:23;;;;;;;29.15;18.75;;;;;;;4.41;95.41;103190.88;4944618;28;20168;-74
2022/04/17 03:45:53;;;;;;;31.75;19.40;;;;;;;4.39;96.05;103189.88;4963689;28;20501;-74
2022/04/17 03:48:21;;;;;;;29.30;19.45;;;;;;;4.38;95.90;103195.88;4942336;28;20280;-74
2022/04/17 03:50:50;;;;;;;29.40;18.77;;;;;;;4.36;96.52;103190.56;4938481;29;20496;-74
2022/04/17 03:53:18;;;;;;;31.95;19.38;;;;;;;4.34;97.05;103194.78;4958814;28;20059;-74
2022/04/17 03:55:47;;;;;;;29.08;18.88;;;;;;;4.30;97.08;103183.22;4941855;28;20060;-74
2022/04/17 03:58:15;;;;;;;30.90;20.35;;;;;;;4.25;96.64;103176.81;4935581;28;20043;-74
2022/04/17 04:00:44;;;;;;;30.45;19.40;;;;;;;4.23;97.03;103187.94;4939565;29;20043;-74
2022/04/17 04:03:13;;;;;;;30.50;20.90;;;;;;;4.19;97.66;103181.59;4944293;28;20051;-74
2022/04/17 04:05:41;;;;;;;27.52;19.77;;;;;;;4.17;97.80;103179.69;4941667;28;20054;-74
2022/04/17 04:08:09;;;;;;;30.70;20.38;;;;;;;4.14;97.78;103175.19;4947748;29;20047;-74
2022/04/17 04:10:38;;;;;;;29.85;20.73;;;;;;;4.15;98.42;103181.31;4948654;28;20051;-74
2022/04/17 04:13:06;;;;;;;31.38;20.63;;;;;;;4.14;98.85;103167.38;4922094;29;20051;-74
2022/04/17 04:15:34;;;;;;;29.42;21.23;;;;;;;4.15;99.39;103163.94;4934278;29;20051;-74
2022/04/17 04:18:03;;;;;;;29.98;21.20;;;;;;;4.17;99.24;103171.88;4949719;28;20039;-74
2022/04/17 04:20:33;;;;;;;30.95;21.13;;;;;;;4.16;99.42;103168.38;4919263;29;20059;-74
2022/04/17 04:23:02;;;;;;;35.60;21.73;;;;;;;4.14;100.00;103171.66;4964575;28;20050;-74
2022/04/17 04:25:30;;;;;;;31.10;20.73;;;;;;;4.14;99.74;103176.88;4964311;28;20055;-74
2022/04/17 04:30:46;;;;;;;36.20;22.85;;;;;;;4.10;100.00;103165.31;4945558;28;20047;-74
2022/04/17 04:33:14;;;;;;;30.42;21.45;;;;;;;4.09;100.00;103158.31;4946069;28;20359;-74
2022/04/17 04:35:43;;;;;;;29.30;20.80;;;;;;;4.07;100.00;103157.31;4952379;28;20059;-74
2022/04/17 04:38:11;;;;;;;33.58;21.55;;;;;;;4.05;100.00;103157.22;4918066;29;20046;-74
2022/04/17 04:40:40;;;;;;;31.85;23.17;;;;;;;4.06;100.00;103168.53;4950934;28;20504;-74
2022/04/17 04:43:08;;;;;;;37.65;21.95;;;;;;;4.04;100.00;103162.31;4930520;28;20142;-74
2022/04/17 04:51:11;;;;;;;30.02;20.95;;;;;;;4.01;100.00;103151.69;4962546;28;20035;-74
2022/04/17 04:53:42;;;;;;;29.83;21.73;;;;;;;4.02;100.00;103151.78;4937605;28;20050;-74
2022/04/17 04:56:12;;;;;;;33.58;22.13;;;;;;;4.05;100.00;103148.47;4925478;28;20047;-74
2022/04/17 04:58:41;;;;;;;34.70;21.10;;;;;;;4.08;100.00;103149.59;4951588;28;20043;-74
2022/04/17 05:01:11;;;;;;;35.78;22.75;;;;;;;4.10;100.00;103150.59;4962431;28;20416;-75
2022/04/17 05:03:40;;;;;;;34.78;22.05;;;;;;;4.14;100.00;103151.72;4950836;28;20062;-75
2022/04/17 05:06:08;;;;;;;35.42;23.58;;;;;;;4.16;100.00;103146.56;4949433;28;20059;-74
2022/04/17 05:08:37;;;;;;;32.75;22.35;;;;;;;4.19;100.00;103152.00;4939899;28;20044;-74
2022/04/17 05:11:05;;;;;;;32.03;20.73;;;;;;;4.22;100.00;103147.00;4948467;28;20146;-74
2022/04/17 05:13:34;;;;;;;30.33;21.10;;;;;;;4.26;100.00;103149.91;4938796;28;20043;-75
2022/04/17 05:16:03;;;;;;;29.20;20.75;;;;;;;4.27;100.00;103149.09;4961966;28;20531;-74
2022/04/17 05:18:32;;;;;;;26.70;19.20;;;;;;;4.30;100.00;103154.50;4944753;28;20352;-74
2022/04/17 05:21:01;;;;;;;30.63;21.05;;;;;;;4.36;100.00;103150.50;4962429;28;20285;-74
2022/04/17 05:23:29;;;;;;;27.52;19.15;;;;;;;4.40;100.00;103148.19;4917886;28;25276;-74
2022/04/17 05:26:05;;;;;;;28.77;19.45;;;;;;;4.46;100.00;103152.91;4931028;29;20043;-74
2022/04/17 05:28:33;;;;;;;32.15;19.30;;;;;;;4.54;100.00;103156.94;4941162;28;20043;-74
2022/04/17 05:31:02;;;;;;;30.30;18.77;;;;;;;4.62;100.00;103149.59;4948052;29;20043;-74
2022/04/17 05:33:31;;;;;;;27.13;19.00;;;;;;;4.70;100.00;103153.59;4948999;28;20558;-75
2022/04/17 05:35:59;;;;;;;28.58;19.73;;;;;;;4.76;100.00;103159.19;4933246;29;20047;-74
2022/04/17 05:38:27;;;;;;;28.33;19.10;;;;;;;4.83;100.00;103160.50;4932495;28;21200;-74
2022/04/17 05:40:56;;;;;;;32.33;20.40;;;;;;;4.88;99.64;103156.47;4932705;29;20047;-75
2022/04/17 05:43:24;;;;;;;28.25;17.80;;;;;;;4.96;98.97;103167.41;4902993;28;20864;-74
2022/04/17 05:45:53;;;;;;;29.27;18.58;;;;;;;5.01;98.63;103166.91;4949510;28;20043;-74
2022/04/17 05:48:21;;;;;;;27.17;16.98;;;;;;;5.09;98.69;103164.75;4929924;29;20043;-74
2022/04/17 05:50:50;;;;;;;30.23;17.90;;;;;;;5.17;98.33;103167.84;4934170;29;20047;-74
2022/04/17 05:53:18;;;;;;;23.88;17.08;;;;;;;5.23;97.80;103168.22;4926906;29;20227;-74
2022/04/17 05:55:47;;;;;;;24.42;17.35;;;;;;;5.32;97.34;103174.03;4932522;28;20039;-74
2022/04/17 05:58:15;;;;;;;26.15;17.27;;;;;;;5.39;96.86;103164.88;4936816;28;20240;-74
2022/04/17 06:00:44;;;;;;;23.55;16.23;;;;;;;5.46;96.73;103164.41;4933438;29;20074;-74
2022/04/17 06:03:15;;;;;;;25.58;15.63;;;;;;;5.58;97.28;103166.91;4945429;28;20058;-74
2022/04/17 06:05:44;;;;;;;28.58;16.63;;;;;;;5.95;97.30;103153.38;4920855;29;20043;-74
2022/04/17 06:08:13;;;;;;;28.70;15.95;;;;;;;6.36;96.75;103158.44;4946782;28;20047;-75
2022/04/17 06:10:42;;;;;;;23.63;15.35;;;;;;;6.54;94.94;103155.06;4904013;29;20132;-74
2022/04/17 06:13:10;;;;;;;28.73;16.08;;;;;;;6.64;94.70;103157.41;4929561;29;20058;-75
2022/04/17 06:15:40;;;;;;;22.48;15.95;;;;;;;6.74;93.71;103151.84;4939612;28;20086;-75
2022/04/17 06:18:10;;;;;;;24.85;15.55;;;;;;;6.92;93.88;103149.38;4922808;29;20039;-75
2022/04/17 06:20:38;;;;;;;25.13;15.02;;;;;;;7.25;93.17;103149.38;4930985;28;20393;-75
2022/04/17 06:23:07;;;;;;;20.17;15.27;;;;;;;7.72;92.57;103153.59;4942338;29;20047;-75
2022/04/17 06:25:35;;;;;;;23.60;15.02;;;;;;;7.99;90.22;103143.59;4948252;28;20043;-75
2022/04/17 06:28:04;;;;;;;24.77;15.30;;;;;;;8.13;89.38;103141.69;4927256;29;20051;-75
2022/04/17 06:30:32;;;;;;;21.25;14.15;;;;;;;8.24;89.25;103141.31;4916831;29;20764;-75
2022/04/17 06:33:01;;;;;;;19.42;14.57;;;;;;;8.33;89.73;103147.03;4947871;28;20043;-75
2022/04/17 06:35:30;;;;;;;23.08;15.75;;;;;;;8.39;89.09;103137.72;4951418;28;20075;-75
2022/04/17 06:38:01;;;;;;;20.00;14.55;;;;;;;8.43;88.29;103137.88;4949023;28;20055;-75
2022/04/17 06:40:34;;;;;;;24.90;15.95;;;;;;;8.48;87.98;103139.91;4947139;28;20044;-75
2022/04/17 06:43:11;;;;;;;21.75;14.40;;;;;;;8.55;86.57;103135.88;4933368;28;20400;-75
2022/04/17 06:45:41;;;;;;;21.27;14.30;;;;;;;8.66;86.86;103136.38;4940322;28;20051;-75
2022/04/17 06:48:13;;;;;;;22.90;14.55;;;;;;;8.81;87.16;103130.94;4946108;28;20035;-75
2022/04/17 06:50:45;;;;;;;18.33;13.30;;;;;;;9.04;87.97;103140.81;4949495;28;20051;-75
2022/04/17 06:53:14;;;;;;;19.50;13.95;;;;;;;9.48;87.01;103127.84;4943760;28;20150;-75
2022/04/17 06:55:43;;;;;;;22.42;13.60;;;;;;;9.91;85.24;103130.63;4948594;28;20054;-75
2022/04/17 06:58:12;;;;;;;21.13;13.27;;;;;;;10.43;84.26;103131.88;4930361;28;20043;-75
2022/04/17 07:00:40;;;;;;;18.42;13.40;;;;;;;10.72;83.05;103122.50;4941117;28;20047;-75
2022/04/17 07:03:08;;;;;;;17.77;12.02;;;;;;;10.92;82.43;103119.72;4945441;29;20051;-75
2022/04/17 07:05:37;;;;;;;16.83;12.38;;;;;;;11.08;80.60;103129.16;4944385;28;20039;-75
2022/04/17 07:08:06;;;;;;;16.13;12.13;;;;;;;11.15;79.88;103115.31;4957901;28;20043;-75
2022/04/17 07:10:38;;;;;;;17.00;12.85;;;;;;;11.29;79.50;103114.09;4955210;28;20044;-75
2022/04/17 07:13:08;;;;;;;18.52;12.57;;;;;;;11.45;78.40;103109.34;4916081;28;20063;-75
2022/04/17 07:15:37;;;;;;;19.38;13.23;;;;;;;11.56;78.08;103112.38;4932674;28;20054;-75
2022/04/17 07:18:06;;;;;;;15.55;12.88;;;;;;;11.66;76.82;103106.56;4943785;29;20493;-75
2022/04/17 07:20:35;;;;;;;15.55;11.82;;;;;;;11.73;74.53;103107.69;4946488;28;20058;-75
2022/04/17 07:23:06;;;;;;;15.73;11.73;;;;;;;11.82;75.36;103084.25;4928187;29;20401;-75
2022/04/17 07:25:36;;;;;;;16.52;11.10;;;;;;;11.98;73.76;103090.97;4921997;29;20039;-75
2022/04/17 07:28:05;;;;;;;13.73;10.45;;;;;;;12.12;71.57;103094.97;4915478;29;20404;-75
2022/04/17 07:30:35;;;;;;;13.07;10.35;;;;;;;12.13;70.26;103107.31;4942090;28;20055;-75
2022/04/17 07:33:04;;;;;;;18.73;11.20;;;;;;;12.03;68.95;103098.19;4941527;28;20058;-75
2022/04/17 07:35:33;;;;;;;14.48;11.15;;;;;;;11.96;68.26;103093.53;4947579;28;20261;-75
2022/04/17 07:38:04;;;;;;;16.40;11.90;;;;;;;11.89;69.33;103089.81;4931093;29;20047;-75
2022/04/17 07:40:34;;;;;;;13.95;10.80;;;;;;;11.89;69.95;103091.53;4944642;28;20504;-75
2022/04/17 07:43:04;;;;;;;16.35;11.23;;;;;;;11.94;69.94;103094.34;4928383;28;20062;-75
2022/04/17 07:45:33;;;;;;;17.13;11.57;;;;;;;11.99;70.49;103087.47;4961599;28;20051;-75
2022/04/17 07:48:02;;;;;;;16.42;10.60;;;;;;;12.00;68.70;103095.47;4928913;28;20777;-75
2022/04/17 07:50:31;;;;;;;14.27;10.60;;;;;;;12.02;68.54;103092.84;4942745;29;20376;-74
2022/04/17 07:53:00;;;;;;;12.68;10.20;;;;;;;12.04;68.47;103093.78;4935363;28;23368;-74
2022/04/17 07:55:29;;;;;;;15.43;10.00;;;;;;;12.01;68.00;103094.59;4937685;28;20062;-75
2022/04/17 08:00:35;;;;;;;14.73;10.48;;;;;;;12.02;67.83;103087.56;4946965;28;20043;-75
2022/04/17 08:06:07;;;;;;;15.32;11.75;;;;;;;12.13;67.07;103077.34;4942928;29;20050;-75
2022/04/17 08:08:39;;;;;;;15.35;10.07;;;;;;;12.21;66.97;103073.19;4937392;28;20050;-75
2022/04/17 08:11:08;;;;;;;13.27;9.27;;;;;;;12.28;66.11;103076.09;4934664;28;20169;-75
2022/04/17 08:13:38;;;;;;;14.95;10.13;;;;;;;12.36;66.29;103068.44;4929854;28;20051;-75
2022/04/17 08:16:06;;;;;;;13.98;9.95;;;;;;;12.52;67.38;103074.19;4944342;29;20058;-75
2022/04/17 08:18:41;;;;;;;12.75;10.18;;;;;;;12.70;67.15;103065.88;4936983;28;20039;-75
2022/04/17 08:21:10;;;;;;;11.65;9.88;;;;;;;12.85;66.07;103064.63;4927248;29;20054;-75
2022/04/17 08:23:38;;;;;;;13.55;10.32;;;;;;;13.05;66.71;103058.97;4934798;28;20528;-75
2022/04/17 08:26:07;;;;;;;12.57;9.00;;;;;;;13.25;65.81;103051.56;4935593;28;20062;-75
2022/04/17 08:28:35;;;;;;;12.88;9.15;;;;;;;13.43;63.91;103057.41;4916044;29;20027;-75
2022/04/17 08:31:04;;;;;;;13.07;8.98;;;;;;;13.57;63.45;103062.16;4940637;29;20048;-75
2022/04/17 08:33:32;;;;;;;13.68;9.60;;;;;;;13.71;63.44;103054.59;4926969;28;20401;-75
2022/04/17 08:36:01;;;;;;;10.65;8.55;;;;;;;13.85;62.97;103058.47;4941836;29;20543;-75
2022/04/17 08:38:29;;;;;;;12.02;8.05;;;;;;;13.95;60.86;103052.56;4930327;28;20039;-75
2022/04/17 08:40:58;;;;;;;11.90;8.48;;;;;;;14.04;60.73;103046.56;4941847;29;20161;-75
2022/04/17 08:43:27;;;;;;;9.52;7.95;;;;;;;14.15;60.86;103047.72;4913029;29;20043;-74
2022/04/17 08:45:56;;;;;;;9.75;7.15;;;;;;;14.30;59.75;103052.47;4925088;28;20058;-75
2022/04/17 08:48:25;;;;;;;11.05;7.30;;;;;;;14.47;58.74;103052.88;4940089;28;20047;-75
2022/04/17 08:50:55;;;;;;;8.63;6.60;;;;;;;14.68;57.82;103040.97;4939940;29;20558;-75
2022/04/17 08:53:24;;;;;;;;;;;;;;;14.89;56.46;103044.03;4945051;28;20051;-75
2022/04/17 08:55:52;;;;;;;8.25;6.78;;;;;;;15.05;56.97;103036.38;4932781;28;20392;-75
2022/04/17 08:58:22;;;;;;;7.93;7.13;;;;;;;15.17;56.51;103042.84;4938970;28;20075;-75
2022/04/17 09:00:50;;;;;;;7.88;6.53;;;;;;;15.28;56.14;103026.22;4882465;29;20531;-75
2022/04/17 09:03:19;;;;;;;7.90;6.18;;;;;;;15.35;54.26;103033.44;4939681;28;20512;-76
2022/04/17 09:05:48;;;;;;;8.82;6.18;;;;;;;15.38;53.84;103028.16;4933902;28;20250;-75
2022/04/17 09:08:18;;;;;;;9.27;6.13;;;;;;;15.38;53.26;103015.75;4908893;29;20031;-75
2022/04/17 09:10:59;;;;;;;6.95;6.25;;;;;;;15.40;52.67;103013.16;4932646;28;20051;-75
2022/04/17 09:13:30;;;;;;;7.13;5.75;;;;;;;15.40;52.67;103005.19;4908133;28;20066;-74
2022/04/17 09:16:01;;;;;;;7.50;5.88;;;;;;;15.36;51.33;103001.56;4932493;28;20112;-74
2022/04/17 09:18:31;;;;;;;8.50;6.45;;;;;;;15.36;52.13;103003.34;4923350;29;20042;-74
2022/04/17 09:21:02;;;;;;;7.45;6.18;;;;;;;15.37;51.29;102998.06;4941203;28;20047;-74
2022/04/17 09:23:36;;;;;;;7.50;6.22;;;;;;;15.40;51.54;103000.75;4953373;28;20043;-74
2022/04/17 09:26:06;;;;;;;8.02;6.55;;;;;;;15.48;50.59;103000.91;4938698;28;20067;-74
2022/04/17 09:28:37;;;;;;;6.47;5.40;;;;;;;15.46;51.65;102996.41;4931971;28;20132;-75
2022/04/17 09:31:10;;;;;;;6.50;5.80;;;;;;;15.45;51.39;102992.88;4933178;28;20051;-75
2022/04/17 09:33:41;;;;;;;5.75;5.13;;;;;;;15.45;50.48;102984.91;4918583;28;20047;-76
2022/04/17 09:36:10;;;;;;;9.40;6.15;;;;;;;15.48;50.70;102990.28;4929232;28;20535;-74
2022/04/17 09:38:42;;;;;;;6.45;5.40;;;;;;;15.53;50.82;102985.03;4914532;28;20177;-79
2022/04/17 09:41:13;;;;;;;6.30;5.70;;;;;;;15.61;50.77;102983.38;4923118;29;20397;-74
2022/04/17 09:43:47;;;;;;;8.02;5.55;;;;;;;15.62;49.81;102984.31;4927881;29;20058;-75
2022/04/17 09:46:15;;;;;;;6.00;5.40;;;;;;;15.59;49.48;102986.03;4945830;28;20051;-76
2022/04/17 09:48:45;;;;;;;5.97;5.03;;;;;;;15.64;48.65;102985.22;4935888;28;20054;-76
2022/04/17 09:51:27;;;;;;;6.93;5.50;;;;;;;15.65;46.39;102989.66;4925719;29;20058;-76
2022/04/17 09:54:05;;;;;;;7.93;5.82;;;;;;;15.66;46.85;102979.03;4947012;29;20272;-75
2022/04/17 09:56:43;;;;;;;6.85;6.13;;;;;;;15.62;47.06;102973.66;4934428;28;20377;-76
2022/04/17 09:59:17;;;;;;;5.88;5.35;;;;;;;15.58;47.46;102960.31;4941085;29;20047;-75
2022/04/17 10:01:49;;;;;;;8.45;6.03;;;;;;;15.62;47.25;102973.66;4960756;28;20070;-75
2022/04/17 10:04:21;;;;;;;6.70;4.53;;;;;;;15.65;47.10;102965.72;4935053;28;20051;-75
2022/04/17 10:06:52;;;;;;;5.78;5.22;;;;;;;15.69;47.59;102964.91;4937266;28;20722;-75
2022/04/17 10:09:21;;;;;;;7.30;6.10;;;;;;;15.74;48.52;102961.47;4947799;28;20412;-77
2022/04/17 10:11:51;;;;;;;11.27;5.97;;;;;;;15.78;48.24;102965.06;4936802;28;20244;-76
2022/04/17 10:14:20;;;;;;;6.35;5.20;;;;;;;15.79;47.89;102962.44;4946500;28;20040;-77
2022/04/17 10:16:49;;;;;;;6.43;5.75;;;;;;;15.80;47.21;102947.38;4940289;29;20330;-75
2022/04/17 10:19:24;;;;;;;7.03;5.22;;;;;;;15.82;47.31;102952.72;4935069;28;20516;-76
2022/04/17 10:21:57;;;;;;;8.00;6.30;;;;;;;15.85;47.52;102943.03;4928760;29;20035;-75
2022/04/17 10:24:26;;;;;;;6.75;5.35;;;;;;;15.89;47.85;102942.22;4938235;28;20681;-78
2022/04/17 10:26:56;;;;;;;6.28;5.43;;;;;;;15.92;47.67;102936.94;4921339;29;20257;-76
2022/04/17 10:29:41;;;;;;;7.10;5.40;;;;;;;15.93;46.79;102936.06;4961792;28;20508;-77
2022/04/17 10:32:31;;;;;;;8.82;6.25;;;;;;;15.93;45.02;102927.19;4950059;28;20047;-76
2022/04/17 10:35:10;;;;;;;6.13;5.50;;;;;;;15.93;45.80;102914.78;4935396;28;20444;-76
2022/04/17 10:38:04;;;;;;;6.78;5.53;;;;;;;15.91;46.41;102919.19;4942983;28;20225;-77
2022/04/17 10:40:33;;;;;;;5.75;5.03;;;;;;;15.90;46.90;102917.41;4937319;28;20050;-76
2022/04/17 10:43:04;;;;;;;7.28;5.00;;;;;;;15.95;45.22;102907.75;4921828;28;20039;-76
2022/04/17 10:45:32;;;;;;;4.90;4.35;;;;;;;15.96;45.85;102903.31;4940026;28;20051;-77
2022/04/17 10:48:11;;;;;;;6.55;5.50;;;;;;;16.02;45.21;102905.16;4948175;28;20058;-76
2022/04/17 10:50:50;;;;;;;5.70;4.75;;;;;;;16.04;44.68;102909.63;4927978;28;20421;-77
2022/04/17 10:53:26;;;;;;;6.20;4.80;;;;;;;16.08;43.74;102903.47;4943382;28;20527;-77
2022/04/17 10:56:09;;;;;;;9.52;4.57;;;;;;;16.07;43.86;102901.69;4938584;28;20525;-76
2022/04/17 10:58:44;;;;;;;5.60;5.07;;;;;;;16.11;45.48;102899.97;4926985;28;20131;-75
2022/04/17 11:01:13;;;;;;;7.28;5.53;;;;;;;16.21;46.01;102891.22;4962536;28;20062;-74
2022/04/17 11:03:54;;;;;;;6.90;5.07;;;;;;;16.33;46.15;102891.38;4927835;28;20047;-75
2022/04/17 11:06:30;;;;;;;7.93;6.30;;;;;;;16.38;44.83;102884.31;4926549;28;20043;-74
2022/04/17 11:09:09;;;;;;;19.90;5.45;;;;;;;16.41;41.76;102877.25;4928804;28;20055;-83
2022/04/17 11:11:43;;;;;;;7.75;4.68;;;;;;;16.38;42.87;102876.34;4946001;28;20047;-75
2022/04/17 11:14:22;;;;;;;5.18;4.38;;;;;;;16.44;42.98;102869.31;4938566;28;20048;-75
2022/04/17 11:16:55;;;;;;;6.88;5.10;;;;;;;16.45;43.97;102869.34;4931540;28;20523;-74
2022/04/17 11:19:27;;;;;;;6.28;5.40;;;;;;;16.37;44.03;102866.59;4942975;29;20046;-74
2022/04/17 11:21:59;;;;;;;6.57;4.90;;;;;;;16.40;43.15;102859.53;4941381;29;20444;-73
2022/04/17 11:24:30;;;;;;;9.25;5.07;;;;;;;16.40;42.26;102862.19;4928568;28;20090;-74
2022/04/17 11:26:58;;;;;;;6.15;5.15;;;;;;;16.40;43.52;102854.19;4944830;28;20050;-74
2022/04/17 11:29:43;;;;;;;8.35;5.88;;;;;;;16.47;43.56;102845.41;4947378;28;20054;-74
2022/04/17 11:32:35;;;;;;;6.40;5.20;;;;;;;16.54;42.34;102847.22;4936550;28;20050;-74
2022/04/17 11:35:05;;;;;;;4.68;4.20;;;;;;;16.60;42.69;102841.06;4937781;28;22084;-74
2022/04/17 11:37:34;;;;;;;8.60;4.97;;;;;;;16.62;41.92;102836.69;4927264;28;20040;-75
2022/04/17 11:40:14;;;;;;;6.97;4.80;;;;;;;16.65;41.56;102836.72;4943530;28;20052;-74
2022/04/17 11:42:44;;;;;;;5.10;4.60;;;;;;;16.70;42.37;102837.66;4901468;29;20040;-74
2022/04/17 11:45:25;;;;;;;6.10;4.55;;;;;;;16.74;39.94;102832.34;4937956;28;20650;-74
2022/04/17 11:47:56;;;;;;;6.15;4.95;;;;;;;16.73;41.09;102835.03;4932730;28;20254;-74
2022/04/17 11:50:27;;;;;;;4.78;4.32;;;;;;;16.69;40.61;102822.53;4959044;28;21152;-74
2022/04/17 11:53:01;;;;;;;4.90;4.40;;;;;;;16.67;41.72;102822.56;4943343;29;20536;-74
2022/04/17 11:55:35;;;;;;;5.35;4.40;;;;;;;16.70;41.41;102824.34;4925043;28;20381;-74